createdAt,value
2022-08-22T00:00:05.001Z,78.40
2022-08-22T00:00:14.419Z,78.20
2022-08-22T00:00:23.836Z,78.10
2022-08-22T00:00:33.276Z,78.00
2022-08-22T00:00:42.907Z,77.90
2022-08-22T00:00:52.101Z,77.80
2022-08-22T00:01:01.517Z,77.70
2022-08-22T00:01:10.959Z,77.50
2022-08-22T00:01:20.333Z,77.40
2022-08-22T00:01:29.746Z,77.40
2022-08-22T00:01:39.156Z,77.30
2022-08-22T00:01:48.581Z,77.30
2022-08-22T00:01:58.063Z,77.20
2022-08-22T00:02:09.060Z,77.20
2022-08-22T00:02:16.962Z,77.10
2022-08-22T00:02:35.864Z,77.30
2022-08-22T00:02:43.675Z,70.40
2022-08-22T00:02:44.826Z,56.00
2022-08-22T00:02:47.029Z,63.50
2022-08-22T00:02:47.572Z,56.10
2022-08-22T00:02:48.935Z,62.90
2022-08-22T00:02:49.120Z,64.40
2022-08-22T00:02:54.059Z,67.10
2022-08-22T00:02:54.358Z,66.70
2022-08-22T00:02:55.766Z,84.60
2022-08-22T00:02:57.375Z,67.70
2022-08-22T00:02:58.170Z,63.30
2022-08-22T00:02:58.277Z,69.20
2022-08-22T00:02:58.682Z,66.90
2022-08-22T00:02:59.456Z,81.00
2022-08-22T00:02:59.525Z,69.30
2022-08-22T00:02:59.617Z,65.00
2022-08-22T00:02:59.618Z,70.20
2022-08-22T00:02:59.810Z,63.90
2022-08-22T00:03:00.473Z,60.30
2022-08-22T00:03:02.258Z,60.10
2022-08-22T00:03:02.493Z,55.10
2022-08-22T00:03:04.031Z,70.40
2022-08-22T00:03:04.341Z,52.60
2022-08-22T00:03:04.341Z,64.00
2022-08-22T00:03:07.953Z,67.90
2022-08-22T00:03:08.827Z,83.80
2022-08-22T00:03:10.013Z,78.10
2022-08-22T00:03:10.286Z,73.60
2022-08-22T00:03:11.174Z,68.70
2022-08-22T00:03:11.928Z,53.50
2022-08-22T00:03:12.111Z,73.60
2022-08-22T00:03:12.287Z,68.80
2022-08-22T00:03:12.456Z,55.80
2022-08-22T00:03:12.560Z,77.80
2022-08-22T00:03:15.702Z,77.30
2022-08-22T00:03:18.709Z,77.50
2022-08-22T00:03:23.136Z,77.50
2022-08-22T00:03:32.051Z,77.40
2022-08-22T00:03:32.570Z,77.60
2022-08-22T00:03:41.972Z,77.70
2022-08-22T00:03:51.408Z,77.70
2022-08-22T00:04:00.843Z,77.80
2022-08-22T00:04:10.254Z,77.90
2022-08-22T00:04:19.675Z,77.90
2022-08-22T00:04:29.080Z,78.00
2022-08-22T00:04:38.524Z,78.00
2022-08-22T00:04:48.439Z,78.20
2022-08-22T00:04:57.818Z,78.30
2022-08-22T00:05:07.236Z,78.40
2022-08-22T00:05:26.028Z,78.60
2022-08-22T00:05:35.469Z,78.70
2022-08-22T00:05:44.886Z,78.80
2022-08-22T00:05:54.321Z,78.90
2022-08-22T00:06:03.723Z,79.10
2022-08-22T00:06:13.128Z,79.00
2022-08-22T00:06:22.543Z,79.10
2022-08-22T00:06:31.967Z,79.20
2022-08-22T00:06:41.455Z,79.40
2022-08-22T00:06:50.871Z,79.50
2022-08-22T00:07:00.299Z,79.60
2022-08-22T00:07:12.921Z,79.60
2022-08-22T00:07:22.388Z,79.70
2022-08-22T00:07:31.793Z,79.90
2022-08-22T00:07:41.223Z,79.90
2022-08-22T00:07:50.697Z,79.90
2022-08-22T00:08:00.404Z,80.00
2022-08-22T00:08:09.583Z,80.00
2022-08-22T00:08:18.976Z,80.10
2022-08-22T00:08:28.416Z,80.10
2022-08-22T00:08:37.833Z,80.20
2022-08-22T00:08:47.257Z,80.40
2022-08-22T00:09:06.102Z,80.50
2022-08-22T00:09:15.503Z,80.70
2022-08-22T00:09:24.937Z,80.60
2022-08-22T00:09:34.376Z,80.90
2022-08-22T00:09:43.779Z,81.00
2022-08-22T00:09:57.673Z,81.10
2022-08-22T00:10:07.135Z,81.20
2022-08-22T00:10:25.298Z,81.30
2022-08-22T00:10:25.987Z,81.30
2022-08-22T00:10:35.362Z,81.40
2022-08-22T00:10:44.782Z,81.50
2022-08-22T00:10:54.247Z,81.70
2022-08-22T00:11:03.665Z,81.80
2022-08-22T00:11:13.165Z,81.90
2022-08-22T00:11:22.585Z,82.00
2022-08-22T00:11:31.986Z,82.00
2022-08-22T00:11:41.449Z,82.10
2022-08-22T00:11:50.884Z,82.10
2022-08-22T00:12:00.330Z,82.10
2022-08-22T00:12:09.754Z,82.10
2022-08-22T00:12:19.163Z,82.10
2022-08-22T00:12:28.581Z,82.10
2022-08-22T00:12:37.987Z,82.00
2022-08-22T00:12:47.394Z,81.90
2022-08-22T00:12:56.812Z,81.80
2022-08-22T00:13:15.670Z,81.70
2022-08-22T00:13:25.085Z,81.60
2022-08-22T00:13:34.487Z,81.60
2022-08-22T00:13:43.915Z,81.50
2022-08-22T00:14:01.877Z,81.40
2022-08-22T00:14:02.776Z,81.40
2022-08-22T00:14:12.219Z,81.40
2022-08-22T00:14:21.636Z,81.40
2022-08-22T00:14:31.053Z,81.30
2022-08-22T00:14:40.461Z,81.30
2022-08-22T00:14:49.862Z,81.40
2022-08-22T00:14:59.263Z,81.40
2022-08-22T00:15:08.685Z,81.40
2022-08-22T00:15:42.202Z,81.40
2022-08-22T00:15:42.423Z,81.30
2022-08-22T00:15:42.848Z,81.30
2022-08-22T00:15:55.813Z,81.40
2022-08-22T00:16:05.219Z,81.40
2022-08-22T00:16:14.630Z,81.40
2022-08-22T00:16:24.046Z,81.50
2022-08-22T00:16:33.456Z,81.50
2022-08-22T00:16:42.890Z,81.50
2022-08-22T00:16:53.553Z,81.60
2022-08-22T00:17:01.685Z,81.60
2022-08-22T00:17:11.143Z,81.80
2022-08-22T00:17:20.542Z,81.80
2022-08-22T00:17:30.020Z,81.90
2022-08-22T00:17:39.450Z,81.80
2022-08-22T00:17:48.860Z,81.90
2022-08-22T00:17:58.447Z,82.00
2022-08-22T00:18:07.703Z,82.10
2022-08-22T00:18:17.100Z,82.20
2022-08-22T00:18:35.997Z,82.40
2022-08-22T00:18:45.414Z,82.40
2022-08-22T00:18:54.826Z,82.50
2022-08-22T00:19:04.239Z,82.50
2022-08-22T00:19:13.667Z,82.70
2022-08-22T00:19:23.097Z,82.70
2022-08-22T00:19:32.538Z,82.80
2022-08-22T00:19:41.963Z,82.90
2022-08-22T00:19:51.421Z,82.90
2022-08-22T00:20:00.848Z,83.00
2022-08-22T00:20:10.280Z,83.10
2022-08-22T00:20:19.694Z,83.10
2022-08-22T00:20:29.115Z,83.30
2022-08-22T00:20:38.548Z,83.30
2022-08-22T00:20:47.960Z,83.50
2022-08-22T00:20:57.364Z,83.50
2022-08-22T00:21:06.806Z,83.60
2022-08-22T00:21:25.642Z,83.70
2022-08-22T00:21:35.071Z,83.70
2022-08-22T00:21:44.480Z,83.90
2022-08-22T00:21:53.907Z,84.00
2022-08-22T00:22:03.318Z,84.00
2022-08-22T00:22:12.759Z,84.10
2022-08-22T00:22:22.153Z,84.10
2022-08-22T00:22:31.576Z,84.20
2022-08-22T00:22:40.969Z,84.30
2022-08-22T00:22:50.406Z,84.40
2022-08-22T00:22:59.833Z,84.60
2022-08-22T00:23:09.274Z,84.10
2022-08-22T00:23:18.692Z,84.60
2022-08-22T00:23:28.116Z,84.70
2022-08-22T00:23:37.523Z,84.80
2022-08-22T00:23:46.946Z,84.80
2022-08-22T00:24:05.798Z,84.90
2022-08-22T00:24:15.205Z,85.00
2022-08-22T00:24:24.634Z,85.10
2022-08-22T00:24:34.092Z,85.20
2022-08-22T00:24:43.510Z,85.20
2022-08-22T00:24:52.925Z,85.30
2022-08-22T00:25:02.311Z,85.40
2022-08-22T00:25:22.803Z,85.50
2022-08-22T00:25:25.558Z,85.60
2022-08-22T00:25:30.552Z,85.70
2022-08-22T00:25:39.952Z,85.80
2022-08-22T00:25:52.147Z,85.90
2022-08-22T00:26:01.543Z,85.90
2022-08-22T00:26:10.946Z,85.90
2022-08-22T00:26:20.363Z,85.90
2022-08-22T00:26:29.766Z,85.90
2022-08-22T00:26:43.317Z,85.90
2022-08-22T00:26:48.580Z,85.90
2022-08-22T00:26:57.978Z,85.90
2022-08-22T00:27:07.388Z,85.80
2022-08-22T00:27:16.859Z,85.70
2022-08-22T00:27:35.665Z,85.50
2022-08-22T00:27:45.250Z,85.30
2022-08-22T00:27:54.630Z,85.20
2022-08-22T00:28:03.866Z,85.00
2022-08-22T00:28:13.282Z,84.90
2022-08-22T00:28:22.690Z,84.80
2022-08-22T00:28:32.106Z,84.70
2022-08-22T00:28:41.544Z,84.50
2022-08-22T00:28:50.962Z,84.40
2022-08-22T00:29:00.426Z,84.10
2022-08-22T00:29:09.838Z,83.90
2022-08-22T00:29:19.253Z,83.70
2022-08-22T00:29:28.719Z,83.50
2022-08-22T00:29:38.058Z,83.20
2022-08-22T00:29:47.481Z,83.10
2022-08-22T00:29:56.922Z,83.00
2022-08-22T00:30:15.730Z,82.50
2022-08-22T00:30:25.153Z,82.40
2022-08-22T00:30:34.527Z,82.10
2022-08-22T00:30:43.946Z,82.00
2022-08-22T00:30:53.359Z,81.80
2022-08-22T00:31:02.807Z,81.60
2022-08-22T00:31:12.225Z,81.50
2022-08-22T00:31:21.610Z,81.30
2022-08-22T00:31:31.018Z,81.10
2022-08-22T00:31:40.422Z,80.90
2022-08-22T00:31:49.837Z,80.70
2022-08-22T00:31:59.260Z,80.60
2022-08-22T00:32:08.692Z,80.30
2022-08-22T00:32:18.142Z,80.10
2022-08-22T00:32:27.542Z,79.90
2022-08-22T00:32:36.945Z,79.70
2022-08-22T00:32:55.759Z,79.40
2022-08-22T00:33:05.174Z,79.40
2022-08-22T00:33:14.566Z,79.40
2022-08-22T00:33:26.554Z,79.30
2022-08-22T00:33:36.006Z,79.10
2022-08-22T00:33:45.416Z,79.00
2022-08-22T00:33:54.843Z,78.80
2022-08-22T00:34:04.249Z,78.70
2022-08-22T00:34:13.642Z,78.60
2022-08-22T00:34:23.064Z,78.50
2022-08-22T00:34:32.477Z,78.30
2022-08-22T00:34:41.871Z,78.20
2022-08-22T00:34:51.326Z,78.10
2022-08-22T00:35:00.731Z,78.00
2022-08-22T00:35:10.166Z,77.90
2022-08-22T00:35:19.573Z,77.90
2022-08-22T00:35:29.001Z,77.80
2022-08-22T00:35:42.940Z,77.80
2022-08-22T00:35:47.818Z,77.70
2022-08-22T00:35:57.214Z,77.50
2022-08-22T00:36:16.052Z,77.50
2022-08-22T00:36:25.475Z,77.50
2022-08-22T00:36:34.882Z,77.40
2022-08-22T00:36:47.797Z,77.30
2022-08-22T00:36:53.676Z,77.20
2022-08-22T00:37:03.067Z,77.10
2022-08-22T00:37:12.486Z,77.10
2022-08-22T00:37:21.936Z,77.00
2022-08-22T00:37:31.402Z,77.00
2022-08-22T00:37:40.815Z,76.90
2022-08-22T00:37:50.236Z,76.80
2022-08-22T00:37:59.806Z,76.80
2022-08-22T00:38:09.107Z,76.70
2022-08-22T00:38:18.525Z,76.70
2022-08-22T00:38:27.947Z,76.50
2022-08-22T00:38:37.324Z,76.50
2022-08-22T00:38:46.746Z,76.30
2022-08-22T00:39:05.569Z,76.30
2022-08-22T00:39:14.989Z,76.10
2022-08-22T00:39:24.375Z,76.20
2022-08-22T00:39:33.801Z,76.10
2022-08-22T00:39:43.261Z,76.00
2022-08-22T00:39:52.646Z,76.00
2022-08-22T00:40:03.594Z,75.90
2022-08-22T00:40:11.469Z,75.90
2022-08-22T00:40:20.916Z,75.80
2022-08-22T00:40:30.260Z,75.70
2022-08-22T00:40:39.662Z,75.60
2022-08-22T00:40:49.057Z,75.60
2022-08-22T00:40:58.470Z,75.50
2022-08-22T00:41:07.924Z,75.50
2022-08-22T00:41:17.317Z,75.40
2022-08-22T00:41:26.745Z,75.40
2022-08-22T00:41:45.579Z,75.30
2022-08-22T00:41:55.049Z,75.20
2022-08-22T00:42:04.500Z,75.30
2022-08-22T00:42:13.900Z,75.10
2022-08-22T00:42:29.523Z,75.10
2022-08-22T00:42:35.727Z,75.10
2022-08-22T00:42:45.114Z,75.00
2022-08-22T00:42:54.532Z,75.10
2022-08-22T00:43:03.950Z,75.10
2022-08-22T00:43:13.385Z,75.20
2022-08-22T00:43:22.781Z,75.10
2022-08-22T00:43:32.176Z,75.10
2022-08-22T00:43:41.599Z,75.10
2022-08-22T00:43:51.015Z,75.00
2022-08-22T00:44:00.437Z,75.00
2022-08-22T00:44:09.862Z,74.90
2022-08-22T00:44:19.279Z,74.90
2022-08-22T00:44:28.758Z,74.80
2022-08-22T00:44:38.160Z,74.80
2022-08-22T00:44:47.582Z,74.70
2022-08-22T00:44:57.000Z,74.70
2022-08-22T00:45:15.815Z,74.60
2022-08-22T00:45:25.265Z,74.50
2022-08-22T00:45:34.683Z,74.50
2022-08-22T00:45:44.115Z,74.40
2022-08-22T00:45:53.510Z,74.40
2022-08-22T00:46:02.921Z,74.40
2022-08-22T00:46:12.330Z,74.30
2022-08-22T00:46:21.750Z,74.30
2022-08-22T00:46:31.173Z,74.30
2022-08-22T00:46:40.556Z,74.30
2022-08-22T00:46:49.959Z,74.30
2022-08-22T00:46:59.369Z,74.20
2022-08-22T00:47:08.788Z,74.40
2022-08-22T00:47:18.214Z,74.30
2022-08-22T00:47:27.653Z,74.30
2022-08-22T00:47:37.067Z,74.30
2022-08-22T00:47:55.918Z,74.20
2022-08-22T00:48:05.289Z,74.10
2022-08-22T00:48:14.887Z,74.10
2022-08-22T00:48:24.176Z,74.10
2022-08-22T00:48:33.576Z,74.00
2022-08-22T00:48:42.971Z,73.90
2022-08-22T00:48:52.372Z,73.90
2022-08-22T00:49:01.805Z,73.90
2022-08-22T00:49:11.210Z,73.80
2022-08-22T00:49:20.613Z,73.80
2022-08-22T00:49:30.002Z,73.80
2022-08-22T00:49:39.433Z,73.80
2022-08-22T00:49:49.015Z,73.80
2022-08-22T00:49:58.435Z,73.70
2022-08-22T00:50:07.852Z,73.70
2022-08-22T00:50:17.272Z,73.80
2022-08-22T00:50:36.135Z,73.80
2022-08-22T00:50:45.527Z,73.70
2022-08-22T00:50:54.937Z,73.70
2022-08-22T00:51:04.392Z,73.70
2022-08-22T00:51:13.803Z,73.70
2022-08-22T00:51:23.208Z,73.60
2022-08-22T00:51:32.674Z,73.60
2022-08-22T00:51:42.150Z,73.60
2022-08-22T00:51:51.553Z,73.60
2022-08-22T00:52:00.968Z,73.60
2022-08-22T00:52:10.377Z,73.60
2022-08-22T00:52:19.796Z,73.60
2022-08-22T00:52:29.249Z,73.60
2022-08-22T00:52:38.627Z,73.60
2022-08-22T00:52:48.025Z,73.60
2022-08-22T00:52:57.431Z,73.60
2022-08-22T00:53:06.846Z,73.50
2022-08-22T00:53:25.666Z,73.50
2022-08-22T00:53:35.059Z,73.50
2022-08-22T00:53:44.484Z,73.40
2022-08-22T00:53:53.886Z,73.40
2022-08-22T00:54:03.308Z,73.30
2022-08-22T00:54:17.823Z,73.30
2022-08-22T00:54:22.226Z,73.30
2022-08-22T00:54:31.650Z,73.40
2022-08-22T00:54:41.057Z,73.50
2022-08-22T00:54:50.477Z,73.50
2022-08-22T00:54:59.879Z,73.50
2022-08-22T00:55:09.278Z,73.50
2022-08-22T00:55:18.677Z,73.50
2022-08-22T00:55:28.085Z,73.50
2022-08-22T00:55:37.483Z,73.40
2022-08-22T00:55:46.885Z,73.40
2022-08-22T00:56:05.678Z,73.40
2022-08-22T00:56:15.087Z,73.30
2022-08-22T00:56:24.545Z,73.30
2022-08-22T00:56:33.968Z,73.30
2022-08-22T00:56:45.996Z,73.30
2022-08-22T00:56:52.804Z,73.30
2022-08-22T00:57:02.223Z,73.20
2022-08-22T00:57:11.636Z,73.20
2022-08-22T00:57:21.041Z,73.20
2022-08-22T00:57:30.489Z,73.20
2022-08-22T00:57:39.925Z,73.20
2022-08-22T00:57:49.334Z,73.10
2022-08-22T00:57:59.027Z,73.20
2022-08-22T00:58:08.212Z,73.20
2022-08-22T00:58:17.626Z,73.20
2022-08-22T00:58:27.025Z,73.20
2022-08-22T00:58:45.829Z,73.20
2022-08-22T00:58:55.285Z,73.10
2022-08-22T00:59:10.623Z,73.10
2022-08-22T00:59:23.283Z,73.10
2022-08-22T00:59:24.245Z,73.20
2022-08-22T00:59:32.961Z,73.10
2022-08-22T00:59:42.386Z,73.20
2022-08-22T00:59:51.799Z,73.30
2022-08-22T01:00:01.199Z,73.40
2022-08-22T01:00:10.764Z,73.40
2022-08-22T01:00:20.173Z,73.60
2022-08-22T01:00:29.595Z,73.60
2022-08-22T01:00:39.004Z,73.80
2022-08-22T01:00:48.413Z,73.90
2022-08-22T01:00:57.857Z,74.10
2022-08-22T01:01:07.319Z,74.10
2022-08-22T01:01:26.155Z,74.40
2022-08-22T01:01:35.538Z,74.60
2022-08-22T01:01:44.879Z,74.60
2022-08-22T01:01:54.272Z,74.90
2022-08-22T01:02:03.671Z,75.10
2022-08-22T01:02:13.084Z,75.20
2022-08-22T01:02:22.503Z,75.30
2022-08-22T01:02:33.744Z,75.40
2022-08-22T01:02:43.195Z,75.50
2022-08-22T01:02:53.047Z,75.70
2022-08-22T01:03:02.043Z,75.80
2022-08-22T01:03:11.496Z,75.90
2022-08-22T01:03:20.882Z,76.10
2022-08-22T01:03:30.295Z,76.20
2022-08-22T01:03:39.738Z,76.30
2022-08-22T01:03:49.160Z,76.40
2022-08-22T01:03:58.591Z,76.50
2022-08-22T01:04:07.992Z,76.70
2022-08-22T01:04:17.413Z,76.80
2022-08-22T01:04:26.824Z,76.80
2022-08-22T01:04:45.699Z,77.10
2022-08-22T01:04:55.126Z,77.40
2022-08-22T01:05:04.555Z,77.50
2022-08-22T01:05:13.982Z,77.70
2022-08-22T01:05:23.421Z,77.80
2022-08-22T01:05:32.885Z,78.10
2022-08-22T01:05:42.300Z,78.20
2022-08-22T01:05:51.721Z,78.20
2022-08-22T01:06:01.140Z,78.50
2022-08-22T01:06:10.580Z,78.60
2022-08-22T01:06:20.027Z,78.80
2022-08-22T01:06:29.458Z,79.00
2022-08-22T01:06:38.855Z,79.10
2022-08-22T01:06:48.279Z,79.30
2022-08-22T01:06:57.705Z,79.40
2022-08-22T01:07:07.128Z,79.60
2022-08-22T01:07:25.974Z,79.90
2022-08-22T01:07:35.427Z,80.00
2022-08-22T01:07:44.837Z,80.10
2022-08-22T01:07:54.263Z,80.20
2022-08-22T01:08:03.674Z,80.40
2022-08-22T01:08:13.097Z,80.50
2022-08-22T01:08:22.493Z,80.60
2022-08-22T01:08:31.917Z,80.80
2022-08-22T01:08:41.339Z,80.90
2022-08-22T01:08:50.748Z,81.00
2022-08-22T01:09:00.208Z,81.30
2022-08-22T01:09:09.629Z,81.40
2022-08-22T01:09:19.073Z,81.50
2022-08-22T01:09:28.485Z,81.70
2022-08-22T01:09:37.916Z,81.80
2022-08-22T01:09:47.333Z,81.90
2022-08-22T01:09:56.760Z,82.00
2022-08-22T01:10:15.616Z,82.10
2022-08-22T01:10:25.039Z,82.30
2022-08-22T01:10:34.419Z,82.40
2022-08-22T01:10:43.821Z,82.50
2022-08-22T01:10:53.252Z,82.60
2022-08-22T01:11:02.735Z,82.70
2022-08-22T01:11:12.156Z,82.90
2022-08-22T01:11:21.570Z,83.00
2022-08-22T01:11:30.974Z,83.10
2022-08-22T01:11:40.411Z,83.20
2022-08-22T01:11:49.811Z,83.30
2022-08-22T01:11:59.232Z,83.40
2022-08-22T01:12:08.645Z,83.50
2022-08-22T01:12:18.043Z,83.50
2022-08-22T01:12:27.465Z,83.70
2022-08-22T01:12:36.903Z,83.70
2022-08-22T01:12:55.782Z,83.90
2022-08-22T01:13:05.249Z,83.90
2022-08-22T01:13:14.643Z,84.00
2022-08-22T01:13:24.059Z,84.10
2022-08-22T01:13:33.488Z,84.10
2022-08-22T01:13:42.891Z,84.10
2022-08-22T01:13:52.307Z,84.20
2022-08-22T01:14:01.756Z,84.20
2022-08-22T01:14:11.175Z,84.30
2022-08-22T01:14:20.649Z,84.40
2022-08-22T01:14:34.398Z,84.40
2022-08-22T01:14:39.456Z,84.40
2022-08-22T01:14:48.881Z,84.50
2022-08-22T01:14:58.312Z,84.60
2022-08-22T01:15:07.754Z,84.60
2022-08-22T01:15:17.152Z,84.70
2022-08-22T01:15:36.055Z,84.70
2022-08-22T01:15:45.483Z,84.70
2022-08-22T01:15:54.896Z,84.80
2022-08-22T01:16:04.299Z,84.70
2022-08-22T01:16:13.740Z,84.90
2022-08-22T01:16:23.151Z,84.80
2022-08-22T01:16:32.569Z,84.80
2022-08-22T01:16:41.976Z,85.00
2022-08-22T01:16:51.413Z,85.00
2022-08-22T01:17:00.861Z,85.10
2022-08-22T01:17:10.411Z,85.30
2022-08-22T01:17:19.821Z,85.20
2022-08-22T01:17:29.246Z,85.30
2022-08-22T01:17:38.691Z,85.40
2022-08-22T01:17:48.121Z,85.40
2022-08-22T01:17:57.693Z,85.40
2022-08-22T01:18:06.949Z,85.50
2022-08-22T01:18:25.793Z,85.80
2022-08-22T01:18:35.242Z,85.90
2022-08-22T01:18:44.662Z,86.00
2022-08-22T01:18:54.063Z,86.10
2022-08-22T01:19:03.481Z,86.10
2022-08-22T01:19:12.905Z,86.20
2022-08-22T01:19:22.316Z,86.20
2022-08-22T01:19:31.725Z,86.30
2022-08-22T01:19:41.130Z,86.40
2022-08-22T01:19:50.550Z,86.40
2022-08-22T01:19:59.968Z,86.50
2022-08-22T01:20:09.428Z,86.60
2022-08-22T01:20:18.839Z,86.70
2022-08-22T01:20:28.233Z,86.80
2022-08-22T01:20:37.630Z,86.90
2022-08-22T01:20:47.036Z,86.90
2022-08-22T01:21:05.884Z,87.00
2022-08-22T01:21:15.288Z,87.00
2022-08-22T01:21:24.710Z,87.00
2022-08-22T01:21:34.199Z,87.00
2022-08-22T01:21:43.611Z,87.00
2022-08-22T01:21:53.041Z,87.00
2022-08-22T01:22:02.467Z,87.20
2022-08-22T01:22:11.870Z,87.20
2022-08-22T01:22:21.336Z,87.30
2022-08-22T01:22:30.793Z,87.40
2022-08-22T01:22:40.243Z,87.40
2022-08-22T01:22:49.648Z,87.50
2022-08-22T01:22:59.067Z,87.50
2022-08-22T01:23:08.499Z,87.70
2022-08-22T01:23:17.897Z,87.70
2022-08-22T01:23:27.313Z,87.80
2022-08-22T01:23:46.143Z,87.90
2022-08-22T01:23:55.574Z,88.00
2022-08-22T01:24:04.987Z,88.10
2022-08-22T01:24:14.387Z,88.20
2022-08-22T01:24:24.142Z,88.30
2022-08-22T01:24:33.322Z,88.50
2022-08-22T01:24:42.744Z,88.50
2022-08-22T01:24:52.162Z,88.50
2022-08-22T01:25:01.572Z,88.60
2022-08-22T01:25:11.014Z,88.60
2022-08-22T01:25:22.511Z,88.90
2022-08-22T01:25:29.857Z,89.00
2022-08-22T01:25:39.271Z,89.10
2022-08-22T01:25:48.700Z,89.10
2022-08-22T01:25:58.111Z,89.30
2022-08-22T01:26:07.495Z,89.30
2022-08-22T01:26:16.913Z,89.40
2022-08-22T01:26:35.764Z,89.80
2022-08-22T01:26:45.237Z,90.00
2022-08-22T01:26:54.645Z,90.00
2022-08-22T01:27:04.083Z,90.00
2022-08-22T01:27:13.474Z,90.00
2022-08-22T01:27:22.883Z,90.00
2022-08-22T01:27:32.289Z,90.10
2022-08-22T01:27:41.742Z,90.10
2022-08-22T01:27:51.172Z,90.20
2022-08-22T01:28:00.640Z,90.20
2022-08-22T01:28:10.042Z,90.20
2022-08-22T01:28:19.449Z,90.20
2022-08-22T01:28:28.877Z,90.20
2022-08-22T01:28:38.297Z,90.20
2022-08-22T01:28:47.717Z,90.20
2022-08-22T01:28:59.908Z,90.20
2022-08-22T01:29:10.368Z,90.20
2022-08-22T01:29:18.743Z,90.20
2022-08-22T01:29:28.723Z,90.30
2022-08-22T01:29:37.583Z,90.20
2022-08-22T01:29:46.986Z,90.30
2022-08-22T01:30:05.829Z,90.30
2022-08-22T01:30:15.259Z,90.40
2022-08-22T01:30:24.667Z,90.40
2022-08-22T01:30:34.104Z,90.40
2022-08-22T01:30:43.517Z,90.50
2022-08-22T01:30:52.922Z,90.50
2022-08-22T01:31:02.349Z,90.60
2022-08-22T01:31:11.795Z,90.60
2022-08-22T01:31:21.207Z,90.60
2022-08-22T01:31:30.635Z,90.60
2022-08-22T01:31:40.049Z,90.60
2022-08-22T01:31:49.530Z,90.70
2022-08-22T01:31:58.966Z,90.70
2022-08-22T01:32:08.363Z,90.80
2022-08-22T01:32:17.780Z,90.80
2022-08-22T01:32:27.196Z,90.80
2022-08-22T01:32:46.013Z,90.80
2022-08-22T01:32:57.047Z,90.80
2022-08-22T01:33:04.816Z,90.80
2022-08-22T01:33:14.243Z,90.90
2022-08-22T01:33:23.651Z,90.90
2022-08-22T01:33:33.115Z,90.90
2022-08-22T01:33:42.519Z,90.90
2022-08-22T01:33:51.944Z,90.90
2022-08-22T01:34:01.445Z,90.90
2022-08-22T01:34:13.053Z,90.90
2022-08-22T01:34:20.277Z,90.90
2022-08-22T01:34:29.696Z,91.00
2022-08-22T01:34:39.132Z,91.00
2022-08-22T01:34:48.549Z,91.00
2022-08-22T01:34:57.983Z,91.00
2022-08-22T01:35:07.469Z,91.10
2022-08-22T01:35:16.881Z,91.10
2022-08-22T01:35:35.712Z,91.10
2022-08-22T01:35:45.172Z,91.20
2022-08-22T01:35:54.583Z,91.20
2022-08-22T01:36:03.993Z,91.30
2022-08-22T01:36:13.405Z,91.30
2022-08-22T01:36:22.820Z,91.30
2022-08-22T01:36:32.239Z,91.30
2022-08-22T01:36:41.636Z,91.30
2022-08-22T01:36:51.046Z,91.30
2022-08-22T01:37:00.452Z,91.30
2022-08-22T01:37:09.903Z,91.30
2022-08-22T01:37:19.307Z,91.30
2022-08-22T01:37:28.730Z,91.30
2022-08-22T01:37:43.471Z,91.30
2022-08-22T01:37:47.603Z,91.30
2022-08-22T01:37:57.209Z,91.30
2022-08-22T01:38:15.843Z,91.30
2022-08-22T01:38:25.270Z,91.30
2022-08-22T01:38:34.718Z,91.30
2022-08-22T01:38:44.133Z,91.20
2022-08-22T01:38:53.568Z,91.30
2022-08-22T01:39:02.985Z,91.20
2022-08-22T01:39:12.390Z,91.20
2022-08-22T01:39:21.818Z,91.30
2022-08-22T01:39:31.215Z,91.30
2022-08-22T01:39:40.674Z,91.30
2022-08-22T01:39:50.158Z,91.30
2022-08-22T01:39:59.560Z,91.30
2022-08-22T01:40:08.944Z,91.30
2022-08-22T01:40:18.383Z,91.30
2022-08-22T01:40:27.802Z,91.30
2022-08-22T01:40:37.222Z,91.30
2022-08-22T01:40:56.091Z,91.30
2022-08-22T01:41:05.511Z,91.30
2022-08-22T01:41:14.939Z,91.30
2022-08-22T01:41:24.339Z,91.20
2022-08-22T01:41:33.814Z,91.20
2022-08-22T01:41:43.229Z,91.20
2022-08-22T01:41:52.659Z,91.20
2022-08-22T01:42:02.085Z,91.10
2022-08-22T01:42:11.559Z,91.20
2022-08-22T01:42:20.961Z,91.20
2022-08-22T01:42:30.404Z,91.20
2022-08-22T01:42:39.830Z,91.20
2022-08-22T01:42:49.277Z,91.20
2022-08-22T01:42:58.698Z,91.20
2022-08-22T01:43:08.144Z,91.20
2022-08-22T01:43:17.541Z,91.30
2022-08-22T01:43:58.596Z,91.30
2022-08-22T01:43:59.150Z,91.30
2022-08-22T01:44:00.713Z,91.30
2022-08-22T01:44:04.627Z,91.30
2022-08-22T01:44:14.106Z,91.30
2022-08-22T01:44:23.497Z,91.40
2022-08-22T01:44:32.960Z,91.40
2022-08-22T01:44:42.369Z,91.30
2022-08-22T01:44:51.807Z,91.30
2022-08-22T01:45:01.227Z,91.30
2022-08-22T01:45:10.642Z,91.30
2022-08-22T01:45:20.091Z,91.20
2022-08-22T01:45:29.491Z,91.30
2022-08-22T01:45:38.932Z,91.30
2022-08-22T01:45:48.346Z,91.20
2022-08-22T01:45:57.806Z,91.30
2022-08-22T01:46:07.207Z,91.30
2022-08-22T01:46:26.062Z,91.30
2022-08-22T01:46:35.519Z,91.30
2022-08-22T01:46:44.933Z,91.30
2022-08-22T01:46:54.351Z,91.30
2022-08-22T01:47:03.825Z,91.40
2022-08-22T01:47:13.229Z,91.40
2022-08-22T01:47:22.693Z,91.50
2022-08-22T01:47:37.390Z,91.60
2022-08-22T01:47:41.535Z,91.60
2022-08-22T01:47:54.181Z,91.60
2022-08-22T01:48:01.001Z,91.70
2022-08-22T01:48:10.376Z,91.70
2022-08-22T01:48:19.784Z,91.80
2022-08-22T01:48:29.220Z,91.80
2022-08-22T01:48:38.640Z,91.80
2022-08-22T01:48:48.060Z,91.80
2022-08-22T01:48:57.475Z,91.90
2022-08-22T01:49:06.912Z,91.90
2022-08-22T01:49:25.744Z,92.00
2022-08-22T01:49:35.170Z,92.00
2022-08-22T01:49:44.570Z,92.00
2022-08-22T01:49:53.993Z,92.00
2022-08-22T01:50:03.416Z,92.10
2022-08-22T01:50:12.847Z,92.10
2022-08-22T01:50:22.296Z,92.10
2022-08-22T01:50:31.714Z,92.10
2022-08-22T01:50:41.135Z,92.10
2022-08-22T01:50:50.562Z,92.20
2022-08-22T01:50:59.981Z,92.20
2022-08-22T01:51:09.439Z,92.20
2022-08-22T01:51:18.873Z,92.20
2022-08-22T01:51:28.315Z,92.20
2022-08-22T01:51:37.935Z,92.30
2022-08-22T01:51:47.348Z,92.40
2022-08-22T01:51:56.779Z,92.50
2022-08-22T01:52:15.619Z,92.50
2022-08-22T01:52:25.075Z,92.40
2022-08-22T01:52:34.492Z,92.50
2022-08-22T01:52:43.940Z,92.60
2022-08-22T01:52:53.389Z,92.60
2022-08-22T01:53:02.801Z,92.60
2022-08-22T01:53:12.244Z,92.60
2022-08-22T01:53:21.660Z,92.70
2022-08-22T01:53:31.090Z,92.70
2022-08-22T01:53:40.503Z,92.70
2022-08-22T01:53:49.922Z,92.70
2022-08-22T01:53:59.374Z,92.70
2022-08-22T01:54:08.793Z,92.70
2022-08-22T01:54:18.231Z,92.70
2022-08-22T01:54:27.665Z,92.70
2022-08-22T01:54:37.075Z,92.80
2022-08-22T01:54:55.909Z,92.80
2022-08-22T01:55:05.325Z,92.90
2022-08-22T01:55:14.795Z,92.90
2022-08-22T01:55:24.261Z,92.90
2022-08-22T01:55:33.889Z,92.90
2022-08-22T01:55:43.327Z,92.90
2022-08-22T01:55:52.826Z,92.90
2022-08-22T01:56:02.236Z,92.90
2022-08-22T01:56:11.644Z,92.90
2022-08-22T01:56:21.061Z,92.90
2022-08-22T01:56:30.487Z,92.90
2022-08-22T01:56:39.911Z,93.00
2022-08-22T01:56:49.352Z,93.10
2022-08-22T01:56:58.795Z,93.20
2022-08-22T01:57:08.254Z,93.30
2022-08-22T01:57:17.676Z,93.30
2022-08-22T01:57:27.106Z,93.40
2022-08-22T01:57:45.948Z,93.40
2022-08-22T01:57:55.428Z,93.40
2022-08-22T01:58:04.812Z,93.30
2022-08-22T01:58:14.215Z,93.40
2022-08-22T01:58:23.636Z,93.40
2022-08-22T01:58:33.051Z,93.40
2022-08-22T01:58:42.481Z,93.40
2022-08-22T01:58:51.903Z,93.50
2022-08-22T01:59:01.804Z,93.60
2022-08-22T01:59:11.110Z,93.60
2022-08-22T01:59:20.165Z,93.60
2022-08-22T01:59:33.742Z,93.70
2022-08-22T01:59:42.443Z,93.60
2022-08-22T01:59:48.429Z,93.60
2022-08-22T01:59:57.861Z,93.60
2022-08-22T02:00:07.382Z,93.60
2022-08-22T02:00:16.841Z,93.60
2022-08-22T02:00:35.935Z,93.70
2022-08-22T02:00:45.152Z,93.70
2022-08-22T02:00:54.585Z,93.70
2022-08-22T02:01:04.021Z,93.70
2022-08-22T02:01:13.385Z,93.70
2022-08-22T02:01:22.800Z,93.70
2022-08-22T02:01:32.161Z,93.70
2022-08-22T02:01:41.583Z,93.70
2022-08-22T02:01:50.997Z,93.70
2022-08-22T02:02:00.410Z,93.70
2022-08-22T02:02:09.833Z,93.60
2022-08-22T02:02:19.251Z,93.60
2022-08-22T02:02:28.673Z,93.60
2022-08-22T02:02:38.083Z,93.60
2022-08-22T02:02:47.517Z,93.60
2022-08-22T02:02:56.946Z,93.70
2022-08-22T02:03:15.763Z,93.70